sensor_id;sensor_type;location;lat;lon;timestamp;pressure;altitude;pressure_sealevel;temperature;humidity
6413;BME280;3239;48.714;9.472;2023-03-19T00:00:17;97909.47;;;9.49;100.00
6413;BME280;3239;48.714;9.472;2023-03-19T00:02:43;97906.13;;;9.56;100.00
6413;BME280;3239;48.714;9.472;2023-03-19T00:05:14;97908.03;;;9.61;100.00
6413;BME280;3239;48.714;9.472;2023-03-19T00:07:40;97911.19;;;9.65;100.00
6413;BME280;3239;48.714;9.472;2023-03-19T00:10:06;97915.50;;;9.60;100.00
6413;BME280;3239;48.714;9.472;2023-03-19T00:12:31;97910.09;;;9.55;100.00
6413;BME280;3239;48.714;9.472;2023-03-19T00:14:57;97914.81;;;9.41;100.00
6413;BME280;3239;48.714;9.472;2023-03-19T00:17:23;97919.06;;;9.55;100.00
6413;BME280;3239;48.714;9.472;2023-03-19T00:19:49;97917.34;;;9.52;100.00
6413;BME280;3239;48.714;9.472;2023-03-19T00:22:15;97921.59;;;9.53;100.00
6413;BME280;3239;48.714;9.472;2023-03-19T00:24:41;97926.28;;;9.40;100.00
6413;BME280;3239;48.714;9.472;2023-03-19T00:27:06;97937.00;;;9.38;100.00
6413;BME280;3239;48.714;9.472;2023-03-19T00:29:32;97923.56;;;9.40;100.00
6413;BME280;3239;48.714;9.472;2023-03-19T00:31:58;97927.66;;;9.46;100.00
6413;BME280;3239;48.714;9.472;2023-03-19T00:34:24;97924.50;;;9.42;100.00
6413;BME280;3239;48.714;9.472;2023-03-19T00:36:50;97938.38;;;9.13;100.00
6413;BME280;3239;48.714;9.472;2023-03-19T00:39:16;97939.31;;;9.15;100.00
6413;BME280;3239;48.714;9.472;2023-03-19T00:41:42;97942.13;;;9.28;100.00
6413;BME280;3239;48.714;9.472;2023-03-19T00:44:17;97946.31;;;9.29;100.00
6413;BME280;3239;48.714;9.472;2023-03-19T00:46:44;97953.34;;;9.25;100.00
6413;BME280;3239;48.714;9.472;2023-03-19T00:49:10;97958.81;;;9.25;100.00
6413;BME280;3239;48.714;9.472;2023-03-19T00:51:36;97962.59;;;9.22;100.00
6413;BME280;3239;48.714;9.472;2023-03-19T00:54:02;97969.63;;;9.17;100.00
6413;BME280;3239;48.714;9.472;2023-03-19T00:56:28;97968.16;;;8.98;100.00
6413;BME280;3239;48.714;9.472;2023-03-19T00:58:55;97966.94;;;9.12;100.00
6413;BME280;3239;48.714;9.472;2023-03-19T01:01:22;97969.25;;;9.26;100.00
6413;BME280;3239;48.714;9.472;2023-03-19T01:03:47;97965.00;;;9.25;100.00
6413;BME280;3239;48.714;9.472;2023-03-19T01:06:13;97960.00;;;9.29;100.00
6413;BME280;3239;48.714;9.472;2023-03-19T01:08:39;97966.28;;;9.24;100.00
6413;BME280;3239;48.714;9.472;2023-03-19T01:11:13;97970.72;;;9.27;100.00
6413;BME280;3239;48.714;9.472;2023-03-19T01:13:39;97968.28;;;9.24;100.00
6413;BME280;3239;48.714;9.472;2023-03-19T01:16:06;97967.72;;;8.94;100.00
6413;BME280;3239;48.714;9.472;2023-03-19T01:18:33;97969.47;;;9.10;100.00
6413;BME280;3239;48.714;9.472;2023-03-19T01:20:59;97977.59;;;8.97;100.00
6413;BME280;3239;48.714;9.472;2023-03-19T01:23:24;97978.69;;;9.07;100.00
6413;BME280;3239;48.714;9.472;2023-03-19T01:25:50;97981.22;;;9.05;100.00
6413;BME280;3239;48.714;9.472;2023-03-19T01:28:17;97984.69;;;9.05;100.00
6413;BME280;3239;48.714;9.472;2023-03-19T01:30:43;97990.22;;;9.00;100.00
6413;BME280;3239;48.714;9.472;2023-03-19T01:33:09;97994.28;;;8.93;100.00
6413;BME280;3239;48.714;9.472;2023-03-19T01:35:35;97997.53;;;8.92;100.00
6413;BME280;3239;48.714;9.472;2023-03-19T01:38:01;98014.38;;;8.96;100.00
6413;BME280;3239;48.714;9.472;2023-03-19T01:40:27;98028.16;;;8.66;100.00
6413;BME280;3239;48.714;9.472;2023-03-19T01:45:38;98030.41;;;9.05;100.00
6413;BME280;3239;48.714;9.472;2023-03-19T01:48:05;98026.13;;;9.09;100.00
6413;BME280;3239;48.714;9.472;2023-03-19T01:50:39;98032.81;;;8.71;100.00
6413;BME280;3239;48.714;9.472;2023-03-19T01:53:08;98038.88;;;8.83;100.00
6413;BME280;3239;48.714;9.472;2023-03-19T01:55:35;98045.97;;;8.91;100.00
6413;BME280;3239;48.714;9.472;2023-03-19T01:58:02;98045.22;;;8.91;100.00
6413;BME280;3239;48.714;9.472;2023-03-19T02:00:31;98038.75;;;8.94;100.00
6413;BME280;3239;48.714;9.472;2023-03-19T02:03:00;98047.25;;;9.09;100.00
6413;BME280;3239;48.714;9.472;2023-03-19T02:05:27;98041.50;;;9.31;100.00
6413;BME280;3239;48.714;9.472;2023-03-19T02:07:58;98044.22;;;9.31;100.00
6413;BME280;3239;48.714;9.472;2023-03-19T02:10:25;98026.63;;;9.45;100.00
6413;BME280;3239;48.714;9.472;2023-03-19T02:12:51;98021.97;;;9.58;100.00
6413;BME280;3239;48.714;9.472;2023-03-19T02:15:17;98028.50;;;9.00;100.00
6413;BME280;3239;48.714;9.472;2023-03-19T02:17:43;98028.34;;;9.11;100.00
6413;BME280;3239;48.714;9.472;2023-03-19T02:20:22;98046.16;;;8.75;100.00
6413;BME280;3239;48.714;9.472;2023-03-19T02:23:29;98053.38;;;8.96;100.00
6413;BME280;3239;48.714;9.472;2023-03-19T02:26:20;98040.16;;;9.19;100.00
6413;BME280;3239;48.714;9.472;2023-03-19T02:28:50;98045.03;;;9.26;100.00
6413;BME280;3239;48.714;9.472;2023-03-19T02:31:17;98039.09;;;9.40;100.00
6413;BME280;3239;48.714;9.472;2023-03-19T02:34:03;98025.69;;;9.42;100.00
6413;BME280;3239;48.714;9.472;2023-03-19T02:36:36;98018.44;;;9.45;100.00
6413;BME280;3239;48.714;9.472;2023-03-19T02:39:09;98026.03;;;9.52;100.00
6413;BME280;3239;48.714;9.472;2023-03-19T02:41:36;98030.69;;;9.57;100.00
6413;BME280;3239;48.714;9.472;2023-03-19T02:44:04;98024.59;;;9.64;100.00
6413;BME280;3239;48.714;9.472;2023-03-19T02:46:31;98017.03;;;9.70;100.00
6413;BME280;3239;48.714;9.472;2023-03-19T02:48:57;98026.00;;;9.70;100.00
6413;BME280;3239;48.714;9.472;2023-03-19T02:51:22;98026.28;;;9.67;100.00
6413;BME280;3239;48.714;9.472;2023-03-19T02:53:48;98026.44;;;9.74;100.00
6413;BME280;3239;48.714;9.472;2023-03-19T02:56:14;98020.03;;;9.53;100.00
6413;BME280;3239;48.714;9.472;2023-03-19T02:58:39;98041.78;;;9.27;100.00
6413;BME280;3239;48.714;9.472;2023-03-19T03:01:05;98054.25;;;9.23;100.00
6413;BME280;3239;48.714;9.472;2023-03-19T03:03:31;98059.22;;;9.43;100.00
6413;BME280;3239;48.714;9.472;2023-03-19T03:05:57;98066.00;;;9.36;100.00
6413;BME280;3239;48.714;9.472;2023-03-19T03:08:23;98079.09;;;9.43;100.00
6413;BME280;3239;48.714;9.472;2023-03-19T03:10:49;98085.44;;;9.51;100.00
6413;BME280;3239;48.714;9.472;2023-03-19T03:13:15;98092.31;;;9.21;100.00
6413;BME280;3239;48.714;9.472;2023-03-19T03:15:40;98104.84;;;9.11;100.00
6413;BME280;3239;48.714;9.472;2023-03-19T03:18:06;98097.72;;;9.26;100.00
6413;BME280;3239;48.714;9.472;2023-03-19T03:20:32;98109.25;;;9.38;100.00
6413;BME280;3239;48.714;9.472;2023-03-19T03:22:58;98116.13;;;9.44;100.00
6413;BME280;3239;48.714;9.472;2023-03-19T03:25:23;98125.06;;;9.45;100.00
6413;BME280;3239;48.714;9.472;2023-03-19T03:27:49;98126.88;;;9.18;100.00
6413;BME280;3239;48.714;9.472;2023-03-19T03:30:15;98133.69;;;9.30;100.00
6413;BME280;3239;48.714;9.472;2023-03-19T03:32:41;98134.09;;;9.40;100.00
6413;BME280;3239;48.714;9.472;2023-03-19T03:35:08;98143.69;;;9.46;100.00
6413;BME280;3239;48.714;9.472;2023-03-19T03:37:35;98146.88;;;9.50;100.00
6413;BME280;3239;48.714;9.472;2023-03-19T03:40:01;98145.09;;;9.53;100.00
6413;BME280;3239;48.714;9.472;2023-03-19T03:42:33;98151.44;;;9.24;100.00
6413;BME280;3239;48.714;9.472;2023-03-19T03:44:59;98155.50;;;9.36;100.00
6413;BME280;3239;48.714;9.472;2023-03-19T03:47:25;98165.81;;;9.24;100.00
6413;BME280;3239;48.714;9.472;2023-03-19T03:49:51;98179.06;;;8.96;100.00
6413;BME280;3239;48.714;9.472;2023-03-19T03:52:16;98187.72;;;9.00;100.00
6413;BME280;3239;48.714;9.472;2023-03-19T03:54:42;98212.78;;;8.75;100.00
6413;BME280;3239;48.714;9.472;2023-03-19T03:57:08;98230.28;;;8.90;100.00
6413;BME280;3239;48.714;9.472;2023-03-19T03:59:34;98228.16;;;8.78;100.00
6413;BME280;3239;48.714;9.472;2023-03-19T04:01:59;98236.59;;;8.80;100.00
6413;BME280;3239;48.714;9.472;2023-03-19T04:04:25;98259.41;;;8.82;100.00
6413;BME280;3239;48.714;9.472;2023-03-19T04:06:51;98271.59;;;8.81;100.00
6413;BME280;3239;48.714;9.472;2023-03-19T04:09:17;98272.59;;;8.78;100.00
6413;BME280;3239;48.714;9.472;2023-03-19T04:11:42;98272.50;;;8.60;100.00
6413;BME280;3239;48.714;9.472;2023-03-19T04:14:08;98274.53;;;8.54;100.00
6413;BME280;3239;48.714;9.472;2023-03-19T04:16:34;98272.75;;;8.62;100.00
6413;BME280;3239;48.714;9.472;2023-03-19T04:19:00;98296.28;;;8.65;100.00
6413;BME280;3239;48.714;9.472;2023-03-19T04:21:26;98286.88;;;8.66;100.00
6413;BME280;3239;48.714;9.472;2023-03-19T04:23:53;98294.09;;;8.63;100.00
6413;BME280;3239;48.714;9.472;2023-03-19T04:26:18;98282.72;;;8.54;100.00
6413;BME280;3239;48.714;9.472;2023-03-19T04:28:44;98303.34;;;8.49;100.00
6413;BME280;3239;48.714;9.472;2023-03-19T04:31:10;98317.91;;;8.63;100.00
6413;BME280;3239;48.714;9.472;2023-03-19T04:33:36;98324.06;;;8.69;100.00
6413;BME280;3239;48.714;9.472;2023-03-19T04:36:03;98332.25;;;8.74;100.00
6413;BME280;3239;48.714;9.472;2023-03-19T04:38:29;98342.50;;;8.63;100.00
6413;BME280;3239;48.714;9.472;2023-03-19T04:40:55;98350.19;;;8.64;100.00
6413;BME280;3239;48.714;9.472;2023-03-19T04:43:23;98349.41;;;8.69;100.00
6413;BME280;3239;48.714;9.472;2023-03-19T04:45:50;98353.84;;;8.72;100.00
6413;BME280;3239;48.714;9.472;2023-03-19T04:48:16;98361.69;;;8.52;100.00
6413;BME280;3239;48.714;9.472;2023-03-19T04:50:44;98362.59;;;8.60;100.00
6413;BME280;3239;48.714;9.472;2023-03-19T04:53:10;98370.31;;;8.61;100.00
6413;BME280;3239;48.714;9.472;2023-03-19T04:55:37;98373.50;;;8.65;100.00
6413;BME280;3239;48.714;9.472;2023-03-19T04:58:03;98382.72;;;8.62;100.00
6413;BME280;3239;48.714;9.472;2023-03-19T05:00:29;98383.47;;;8.63;100.00
6413;BME280;3239;48.714;9.472;2023-03-19T05:02:56;98389.69;;;8.58;100.00
6413;BME280;3239;48.714;9.472;2023-03-19T05:05:22;98396.13;;;8.66;100.00
6413;BME280;3239;48.714;9.472;2023-03-19T05:07:48;98406.00;;;8.74;100.00
6413;BME280;3239;48.714;9.472;2023-03-19T05:10:13;98411.91;;;8.78;100.00
6413;BME280;3239;48.714;9.472;2023-03-19T05:12:39;98413.97;;;8.67;100.00
6413;BME280;3239;48.714;9.472;2023-03-19T05:15:13;98423.16;;;8.69;100.00
6413;BME280;3239;48.714;9.472;2023-03-19T05:17:39;98418.91;;;8.74;100.00
6413;BME280;3239;48.714;9.472;2023-03-19T05:20:08;98413.66;;;8.76;100.00
6413;BME280;3239;48.714;9.472;2023-03-19T05:22:38;98421.63;;;8.74;100.00
6413;BME280;3239;48.714;9.472;2023-03-19T05:25:08;98429.19;;;8.51;100.00
6413;BME280;3239;48.714;9.472;2023-03-19T05:27:35;98435.19;;;8.50;100.00
6413;BME280;3239;48.714;9.472;2023-03-19T05:30:00;98436.63;;;8.56;100.00
6413;BME280;3239;48.714;9.472;2023-03-19T05:32:27;98445.03;;;8.64;100.00
6413;BME280;3239;48.714;9.472;2023-03-19T05:34:53;98441.56;;;8.63;100.00
6413;BME280;3239;48.714;9.472;2023-03-19T05:37:18;98444.63;;;8.38;100.00
6413;BME280;3239;48.714;9.472;2023-03-19T05:39:44;98458.28;;;8.43;100.00
6413;BME280;3239;48.714;9.472;2023-03-19T05:42:10;98461.22;;;8.51;100.00
6413;BME280;3239;48.714;9.472;2023-03-19T05:44:36;98472.34;;;8.64;100.00
6413;BME280;3239;48.714;9.472;2023-03-19T05:47:02;98465.94;;;8.56;100.00
6413;BME280;3239;48.714;9.472;2023-03-19T05:49:28;98478.28;;;8.62;100.00
6413;BME280;3239;48.714;9.472;2023-03-19T05:51:54;98477.56;;;8.62;100.00
6413;BME280;3239;48.714;9.472;2023-03-19T05:54:20;98481.50;;;8.72;100.00
6413;BME280;3239;48.714;9.472;2023-03-19T05:56:45;98486.47;;;8.68;100.00
6413;BME280;3239;48.714;9.472;2023-03-19T05:59:11;98488.97;;;8.66;100.00
6413;BME280;3239;48.714;9.472;2023-03-19T06:01:37;98483.53;;;8.60;100.00
6413;BME280;3239;48.714;9.472;2023-03-19T06:04:02;98496.66;;;8.67;100.00
6413;BME280;3239;48.714;9.472;2023-03-19T06:06:28;98499.59;;;8.75;100.00
6413;BME280;3239;48.714;9.472;2023-03-19T06:08:54;98496.66;;;8.67;100.00
6413;BME280;3239;48.714;9.472;2023-03-19T06:11:20;98509.38;;;8.54;100.00
6413;BME280;3239;48.714;9.472;2023-03-19T06:13:45;98512.13;;;8.43;100.00
6413;BME280;3239;48.714;9.472;2023-03-19T06:16:11;98514.59;;;8.46;100.00
6413;BME280;3239;48.714;9.472;2023-03-19T06:18:37;98524.50;;;8.60;100.00
6413;BME280;3239;48.714;9.472;2023-03-19T06:21:03;98528.22;;;8.63;100.00
6413;BME280;3239;48.714;9.472;2023-03-19T06:23:29;98529.19;;;8.65;100.00
6413;BME280;3239;48.714;9.472;2023-03-19T06:25:56;98533.41;;;8.66;100.00
6413;BME280;3239;48.714;9.472;2023-03-19T06:28:22;98529.94;;;8.60;100.00
6413;BME280;3239;48.714;9.472;2023-03-19T06:30:49;98537.63;;;8.67;100.00
6413;BME280;3239;48.714;9.472;2023-03-19T06:33:15;98542.59;;;8.69;100.00
6413;BME280;3239;48.714;9.472;2023-03-19T06:35:43;98544.81;;;8.65;100.00
6413;BME280;3239;48.714;9.472;2023-03-19T06:38:09;98544.28;;;8.77;100.00
6413;BME280;3239;48.714;9.472;2023-03-19T06:40:38;98555.94;;;8.89;100.00
6413;BME280;3239;48.714;9.472;2023-03-19T06:43:04;98563.13;;;8.86;100.00
6413;BME280;3239;48.714;9.472;2023-03-19T06:45:39;98564.44;;;8.74;100.00
6413;BME280;3239;48.714;9.472;2023-03-19T06:48:06;98573.28;;;8.97;100.00
6413;BME280;3239;48.714;9.472;2023-03-19T06:50:35;98574.03;;;8.97;100.00
6413;BME280;3239;48.714;9.472;2023-03-19T06:53:02;98553.63;;;9.04;100.00
6413;BME280;3239;48.714;9.472;2023-03-19T06:55:31;98563.53;;;9.07;100.00
6413;BME280;3239;48.714;9.472;2023-03-19T06:57:57;98565.13;;;8.86;100.00
6413;BME280;3239;48.714;9.472;2023-03-19T07:00:25;98559.59;;;9.02;100.00
6413;BME280;3239;48.714;9.472;2023-03-19T07:02:50;98562.25;;;9.19;100.00
6413;BME280;3239;48.714;9.472;2023-03-19T07:05:25;98565.00;;;9.19;100.00
6413;BME280;3239;48.714;9.472;2023-03-19T07:07:51;98565.06;;;9.02;100.00
6413;BME280;3239;48.714;9.472;2023-03-19T07:10:21;98559.53;;;9.13;100.00
6413;BME280;3239;48.714;9.472;2023-03-19T07:12:50;98563.00;;;9.19;100.00
6413;BME280;3239;48.714;9.472;2023-03-19T07:15:19;98569.00;;;9.12;100.00
6413;BME280;3239;48.714;9.472;2023-03-19T07:17:47;98570.63;;;9.37;100.00
6413;BME280;3239;48.714;9.472;2023-03-19T07:20:15;98578.47;;;9.52;100.00
6413;BME280;3239;48.714;9.472;2023-03-19T07:22:44;98579.66;;;9.62;100.00
6413;BME280;3239;48.714;9.472;2023-03-19T07:25:13;98588.13;;;9.58;100.00
6413;BME280;3239;48.714;9.472;2023-03-19T07:27:39;98575.53;;;9.44;100.00
6413;BME280;3239;48.714;9.472;2023-03-19T07:30:19;98582.22;;;9.49;100.00
6413;BME280;3239;48.714;9.472;2023-03-19T07:32:44;98582.53;;;9.75;100.00
6413;BME280;3239;48.714;9.472;2023-03-19T07:35:13;98580.19;;;9.90;100.00
6413;BME280;3239;48.714;9.472;2023-03-19T07:37:39;98586.84;;;10.00;100.00
6413;BME280;3239;48.714;9.472;2023-03-19T07:40:13;98576.19;;;9.96;100.00
6413;BME280;3239;48.714;9.472;2023-03-19T07:42:39;98574.13;;;10.02;100.00
6413;BME280;3239;48.714;9.472;2023-03-19T07:45:14;98576.06;;;10.13;100.00
6413;BME280;3239;48.714;9.472;2023-03-19T07:47:43;98574.38;;;10.04;100.00
6413;BME280;3239;48.714;9.472;2023-03-19T07:50:25;98580.84;;;10.07;100.00
6413;BME280;3239;48.714;9.472;2023-03-19T07:52:51;98571.78;;;10.17;100.00
6413;BME280;3239;48.714;9.472;2023-03-19T07:55:19;98573.69;;;10.28;100.00
6413;BME280;3239;48.714;9.472;2023-03-19T07:57:46;98564.31;;;10.18;100.00
6413;BME280;3239;48.714;9.472;2023-03-19T08:00:18;98560.00;;;10.28;100.00
6413;BME280;3239;48.714;9.472;2023-03-19T08:02:53;98563.66;;;10.36;100.00
6413;BME280;3239;48.714;9.472;2023-03-19T08:05:19;98540.31;;;10.53;100.00
6413;BME280;3239;48.714;9.472;2023-03-19T08:07:45;98521.41;;;10.50;100.00
6413;BME280;3239;48.714;9.472;2023-03-19T08:10:19;98512.16;;;10.77;100.00
6413;BME280;3239;48.714;9.472;2023-03-19T08:12:46;98503.25;;;10.71;100.00
6413;BME280;3239;48.714;9.472;2023-03-19T08:15:20;98489.94;;;10.99;100.00
6413;BME280;3239;48.714;9.472;2023-03-19T08:17:59;98481.91;;;11.19;100.00
6413;BME280;3239;48.714;9.472;2023-03-19T08:20:26;98470.19;;;11.37;100.00
6413;BME280;3239;48.714;9.472;2023-03-19T08:22:51;98447.81;;;11.33;100.00
6413;BME280;3239;48.714;9.472;2023-03-19T08:25:19;98433.63;;;11.48;100.00
6413;BME280;3239;48.714;9.472;2023-03-19T08:27:44;98422.84;;;11.50;100.00
6413;BME280;3239;48.714;9.472;2023-03-19T08:30:19;98404.66;;;11.34;100.00
6413;BME280;3239;48.714;9.472;2023-03-19T08:32:46;98395.13;;;11.53;100.00
6413;BME280;3239;48.714;9.472;2023-03-19T08:35:19;98381.31;;;11.59;100.00
6413;BME280;3239;48.714;9.472;2023-03-19T08:37:45;98375.31;;;11.73;100.00
6413;BME280;3239;48.714;9.472;2023-03-19T08:40:12;98353.25;;;11.92;100.00
6413;BME280;3239;48.714;9.472;2023-03-19T08:42:38;98344.81;;;11.90;100.00
6413;BME280;3239;48.714;9.472;2023-03-19T08:45:13;98322.41;;;12.12;100.00
6413;BME280;3239;48.714;9.472;2023-03-19T08:47:39;98302.22;;;12.22;100.00
6413;BME280;3239;48.714;9.472;2023-03-19T08:50:07;98295.41;;;12.36;100.00
6413;BME280;3239;48.714;9.472;2023-03-19T08:52:33;98293.66;;;12.26;100.00
6413;BME280;3239;48.714;9.472;2023-03-19T08:54:59;98294.41;;;12.13;100.00
6413;BME280;3239;48.714;9.472;2023-03-19T08:57:25;98311.53;;;12.53;100.00
6413;BME280;3239;48.714;9.472;2023-03-19T08:59:54;98308.44;;;12.23;100.00
6413;BME280;3239;48.714;9.472;2023-03-19T09:02:20;98318.47;;;12.20;100.00
6413;BME280;3239;48.714;9.472;2023-03-19T09:04:45;98324.44;;;12.45;100.00
6413;BME280;3239;48.714;9.472;2023-03-19T09:07:11;98319.63;;;12.71;100.00
6413;BME280;3239;48.714;9.472;2023-03-19T09:09:41;98315.00;;;12.87;100.00
6413;BME280;3239;48.714;9.472;2023-03-19T09:12:10;98308.38;;;13.03;100.00
6413;BME280;3239;48.714;9.472;2023-03-19T09:14:37;98297.28;;;12.95;100.00
6413;BME280;3239;48.714;9.472;2023-03-19T09:17:04;98295.16;;;13.22;100.00
6413;BME280;3239;48.714;9.472;2023-03-19T09:19:30;98287.66;;;13.50;100.00
6413;BME280;3239;48.714;9.472;2023-03-19T09:21:58;98269.72;;;13.29;100.00
6413;BME280;3239;48.714;9.472;2023-03-19T09:24:34;98264.06;;;13.62;100.00
6413;BME280;3239;48.714;9.472;2023-03-19T09:27:00;98254.09;;;13.87;100.00
6413;BME280;3239;48.714;9.472;2023-03-19T09:29:25;98256.06;;;13.79;100.00
6413;BME280;3239;48.714;9.472;2023-03-19T09:31:51;98245.41;;;14.19;100.00
6413;BME280;3239;48.714;9.472;2023-03-19T09:34:17;98243.84;;;13.95;100.00
6413;BME280;3239;48.714;9.472;2023-03-19T09:36:43;98242.19;;;14.35;100.00
6413;BME280;3239;48.714;9.472;2023-03-19T09:39:08;98236.56;;;15.16;100.00
6413;BME280;3239;48.714;9.472;2023-03-19T09:44:29;98178.06;;;17.17;100.00
6413;BME280;3239;48.714;9.472;2023-03-19T09:49:46;98126.34;;;17.53;100.00
6413;BME280;3239;48.714;9.472;2023-03-19T09:58:24;98105.38;;;18.03;100.00
6413;BME280;3239;48.714;9.472;2023-03-19T10:00:53;98099.63;;;18.18;100.00
6413;BME280;3239;48.714;9.472;2023-03-19T10:03:41;98098.53;;;18.86;100.00
6413;BME280;3239;48.714;9.472;2023-03-19T10:06:25;98093.59;;;19.60;100.00
6413;BME280;3239;48.714;9.472;2023-03-19T10:12:32;98084.66;;;19.62;100.00
6413;BME280;3239;48.714;9.472;2023-03-19T10:15:32;98076.75;;;21.74;96.68
6413;BME280;3239;48.714;9.472;2023-03-19T10:23:36;98070.09;;;21.14;87.43
6413;BME280;3239;48.714;9.472;2023-03-19T10:26:12;98076.41;;;20.63;90.46
6413;BME280;3239;48.714;9.472;2023-03-19T10:28:42;98064.22;;;19.48;95.51
6413;BME280;3239;48.714;9.472;2023-03-19T10:31:25;98063.16;;;18.77;100.00
6413;BME280;3239;48.714;9.472;2023-03-19T10:34:33;98058.47;;;20.75;85.66
6413;BME280;3239;48.714;9.472;2023-03-19T10:37:12;98059.50;;;21.33;67.25
6413;BME280;3239;48.714;9.472;2023-03-19T10:39:42;98056.31;;;19.16;80.73
6413;BME280;3239;48.714;9.472;2023-03-19T10:45:35;98048.59;;;21.05;74.18
6413;BME280;3239;48.714;9.472;2023-03-19T10:48:03;98043.34;;;21.64;69.82
6413;BME280;3239;48.714;9.472;2023-03-19T10:51:03;98040.47;;;21.62;63.01
6413;BME280;3239;48.714;9.472;2023-03-19T10:53:36;98039.34;;;20.91;64.49
6413;BME280;3239;48.714;9.472;2023-03-19T10:56:24;98034.34;;;20.89;58.91
6413;BME280;3239;48.714;9.472;2023-03-19T10:59:09;98039.69;;;19.84;70.28
6413;BME280;3239;48.714;9.472;2023-03-19T11:01:45;98049.28;;;18.67;72.62
6413;BME280;3239;48.714;9.472;2023-03-19T11:04:20;98043.63;;;19.32;80.12
6413;BME280;3239;48.714;9.472;2023-03-19T11:06:54;98037.91;;;19.30;71.83
6413;BME280;3239;48.714;9.472;2023-03-19T11:09:34;98035.13;;;18.82;76.45
6413;BME280;3239;48.714;9.472;2023-03-19T11:12:31;98028.69;;;19.37;71.26
6413;BME280;3239;48.714;9.472;2023-03-19T11:14:59;98022.84;;;19.42;74.49
6413;BME280;3239;48.714;9.472;2023-03-19T11:17:45;98022.53;;;18.72;73.34
6413;BME280;3239;48.714;9.472;2023-03-19T11:20:31;98028.25;;;19.31;73.29
6413;BME280;3239;48.714;9.472;2023-03-19T11:22:59;98028.97;;;18.55;71.20
6413;BME280;3239;48.714;9.472;2023-03-19T11:25:50;98023.13;;;19.18;67.42
6413;BME280;3239;48.714;9.472;2023-03-19T11:28:22;98024.13;;;18.46;68.31
6413;BME280;3239;48.714;9.472;2023-03-19T11:34:25;98033.47;;;18.15;66.87
6413;BME280;3239;48.714;9.472;2023-03-19T11:39:52;98013.72;;;18.01;71.08
6413;BME280;3239;48.714;9.472;2023-03-19T11:48:21;98006.94;;;19.24;57.96
6413;BME280;3239;48.714;9.472;2023-03-19T11:54:10;98011.44;;;19.38;67.38
6413;BME280;3239;48.714;9.472;2023-03-19T11:57:01;98007.66;;;19.24;68.53
6413;BME280;3239;48.714;9.472;2023-03-19T12:28:25;97965.50;;;21.01;56.43
6413;BME280;3239;48.714;9.472;2023-03-19T12:36:34;97966.59;;;21.52;46.78
6413;BME280;3239;48.714;9.472;2023-03-19T12:39:17;97959.22;;;21.01;48.17
6413;BME280;3239;48.714;9.472;2023-03-19T12:41:45;97967.31;;;20.13;47.52
6413;BME280;3239;48.714;9.472;2023-03-19T12:44:38;97967.22;;;20.85;49.65
6413;BME280;3239;48.714;9.472;2023-03-19T12:47:24;97961.53;;;19.50;53.18
6413;BME280;3239;48.714;9.472;2023-03-19T12:50:04;97970.03;;;19.42;52.78
6413;BME280;3239;48.714;9.472;2023-03-19T12:52:40;97963.44;;;19.47;56.53
6413;BME280;3239;48.714;9.472;2023-03-19T13:01:05;97950.63;;;20.87;50.39
6413;BME280;3239;48.714;9.472;2023-03-19T13:04:02;97947.44;;;20.28;46.89
6413;BME280;3239;48.714;9.472;2023-03-19T13:06:35;97953.59;;;21.22;45.92
6413;BME280;3239;48.714;9.472;2023-03-19T13:11:53;97945.19;;;20.36;45.50
6413;BME280;3239;48.714;9.472;2023-03-19T13:23:03;97943.50;;;18.44;58.29
6413;BME280;3239;48.714;9.472;2023-03-19T13:25:38;97945.69;;;18.93;59.34
6413;BME280;3239;48.714;9.472;2023-03-19T13:28:09;97949.22;;;18.75;63.34
6413;BME280;3239;48.714;9.472;2023-03-19T13:30:36;97945.94;;;19.35;64.11
6413;BME280;3239;48.714;9.472;2023-03-19T13:33:16;97940.31;;;19.54;62.72
6413;BME280;3239;48.714;9.472;2023-03-19T13:35:49;97944.28;;;19.51;59.87
6413;BME280;3239;48.714;9.472;2023-03-19T13:38:36;97948.34;;;18.72;64.76
6413;BME280;3239;48.714;9.472;2023-03-19T13:41:03;97948.59;;;19.14;67.15
6413;BME280;3239;48.714;9.472;2023-03-19T13:46:37;97944.38;;;18.75;71.72
6413;BME280;3239;48.714;9.472;2023-03-19T13:49:35;97942.94;;;18.55;68.88
6413;BME280;3239;48.714;9.472;2023-03-19T13:54:39;97938.50;;;17.69;79.54
6413;BME280;3239;48.714;9.472;2023-03-19T13:57:18;97951.03;;;17.70;86.04
6413;BME280;3239;48.714;9.472;2023-03-19T13:59:47;97947.81;;;17.64;83.62
6413;BME280;3239;48.714;9.472;2023-03-19T14:04:57;97954.88;;;17.84;88.13
6413;BME280;3239;48.714;9.472;2023-03-19T14:07:35;97958.25;;;17.92;96.28
6413;BME280;3239;48.714;9.472;2023-03-19T14:10:27;97956.59;;;17.70;100.00
6413;BME280;3239;48.714;9.472;2023-03-19T14:13:07;97950.94;;;17.51;100.00
6413;BME280;3239;48.714;9.472;2023-03-19T14:15:34;97953.63;;;17.15;100.00
6413;BME280;3239;48.714;9.472;2023-03-19T14:18:03;97959.31;;;16.90;100.00
6413;BME280;3239;48.714;9.472;2023-03-19T14:23:27;97955.06;;;16.89;100.00
6413;BME280;3239;48.714;9.472;2023-03-19T14:31:44;97952.09;;;16.61;100.00
6413;BME280;3239;48.714;9.472;2023-03-19T14:34:41;97950.13;;;16.54;100.00
6413;BME280;3239;48.714;9.472;2023-03-19T14:37:30;97954.09;;;16.43;100.00
6413;BME280;3239;48.714;9.472;2023-03-19T14:40:23;97953.09;;;16.31;100.00
6413;BME280;3239;48.714;9.472;2023-03-19T14:46:04;97953.59;;;16.20;100.00
6413;BME280;3239;48.714;9.472;2023-03-19T14:54:02;97951.97;;;15.93;100.00
6413;BME280;3239;48.714;9.472;2023-03-19T14:56:33;97954.88;;;16.02;100.00
6413;BME280;3239;48.714;9.472;2023-03-19T14:58:59;97962.31;;;15.92;100.00
6413;BME280;3239;48.714;9.472;2023-03-19T15:01:37;97958.25;;;15.93;100.00
6413;BME280;3239;48.714;9.472;2023-03-19T15:04:09;97966.47;;;16.01;100.00
6413;BME280;3239;48.714;9.472;2023-03-19T15:06:42;97967.00;;;15.82;100.00
6413;BME280;3239;48.714;9.472;2023-03-19T15:09:23;97970.53;;;15.75;100.00
6413;BME280;3239;48.714;9.472;2023-03-19T15:18:10;98001.13;;;15.45;100.00
6413;BME280;3239;48.714;9.472;2023-03-19T15:20:50;98023.13;;;14.51;100.00
6413;BME280;3239;48.714;9.472;2023-03-19T15:23:29;98049.91;;;13.18;100.00
6413;BME280;3239;48.714;9.472;2023-03-19T15:26:02;98063.50;;;12.60;100.00
6413;BME280;3239;48.714;9.472;2023-03-19T15:28:43;98065.84;;;12.28;100.00
6413;BME280;3239;48.714;9.472;2023-03-19T15:31:09;98075.78;;;12.31;100.00
6413;BME280;3239;48.714;9.472;2023-03-19T15:33:37;98066.78;;;12.58;100.00
6413;BME280;3239;48.714;9.472;2023-03-19T15:36:16;98060.13;;;12.46;100.00
6413;BME280;3239;48.714;9.472;2023-03-19T15:41:25;98098.13;;;12.55;100.00
6413;BME280;3239;48.714;9.472;2023-03-19T15:43:53;98129.69;;;12.62;100.00